Time;durP1;ratioP1;P1;durP2;ratioP2;P2;SDS_P1;SDS_P2;PMS_P1;PMS_P2;Temp;Humidity;BMP_temperature;BMP_pressure;BME280_temperature;BME280_humidity;BME280_pressure;Samples;Min_cycle;Max_cycle;Signal;HPM_P1;HPM_P2
2020/12/04 00:02:03;;;;;;;;;;;;;19.70;95703.00;;;;5071500;28;1937;-35
2020/12/04 00:04:29;;;;;;;;;;;;;19.60;95703.00;;;;5071798;28;1016;-35
2020/12/04 00:06:56;;;;;;;;;;;;;19.60;95703.00;;;;5071230;28;1187;-35
2020/12/04 00:09:22;;;;;;;;;;;;;19.60;95698.00;;;;5071316;28;1124;-35
2020/12/04 00:11:48;;;;;;;;;;;;;19.60;95690.00;;;;5071552;28;1286;-35
2020/12/04 00:14:14;;;;;;;;;;;;;19.60;95682.00;;;;5079185;28;1172;-36
2020/12/04 00:16:40;;;;;;;;;;;;;19.60;95686.00;;;;5088940;28;1533;-36
2020/12/04 00:19:06;;;;;;;;;;;;;19.60;95686.00;;;;5074273;28;1363;-35
2020/12/04 00:21:32;;;;;;;;;;;;;19.60;95674.00;;;;5070857;28;1981;-36
2020/12/04 00:23:59;;;;;;;;;;;;;19.50;95672.00;;;;5071176;28;1088;-35
2020/12/04 00:26:25;;;;;;;;;;;;;19.50;95674.00;;;;5071771;28;1020;-35
2020/12/04 00:28:51;;;;;;;;;;;;;19.50;95677.00;;;;5071551;28;1052;-35
2020/12/04 00:31:17;;;;;;;;;;;;;19.50;95673.00;;;;5071290;28;1270;-36
2020/12/04 00:33:43;;;;;;;;;;;;;19.50;95672.00;;;;5071062;28;1100;-36
2020/12/04 00:36:09;;;;;;;;;;;;;19.50;95676.00;;;;5071326;28;1087;-35
2020/12/04 00:38:35;;;;;;;;;;;;;19.40;95656.00;;;;5071574;28;1036;-35
2020/12/04 00:41:02;;;;;;;;;;;;;19.40;95656.00;;;;5071239;28;1989;-35
2020/12/04 00:43:28;;;;;;;;;;;;;19.40;95662.00;;;;5071217;28;1060;-36
2020/12/04 00:45:54;;;;;;;;;;;;;19.40;95663.00;;;;5071389;28;1092;-35
2020/12/04 00:48:20;;;;;;;;;;;;;19.40;95663.00;;;;5071118;28;1183;-35
2020/12/04 00:50:46;;;;;;;;;;;;;19.40;95662.00;;;;5070870;28;1281;-36
2020/12/04 00:53:12;;;;;;;;;;;;;19.30;95671.00;;;;5052779;28;1016;-36
2020/12/04 00:55:38;;;;;;;;;;;;;19.30;95671.00;;;;5049754;28;1012;-36
2020/12/04 00:58:04;;;;;;;;;;;;;19.30;95669.00;;;;5049058;28;1132;-35
2020/12/04 01:00:30;;;;;;;;;;;;;19.20;95670.00;;;;5063647;28;1989;-35
2020/12/04 01:02:56;;;;;;;;;;;;;19.20;95661.00;;;;5074650;28;1171;-35
2020/12/04 01:05:22;;;;;;;;;;;;;19.20;95669.00;;;;5074356;28;1163;-35
2020/12/04 01:07:48;;;;;;;;;;;;;19.10;95656.00;;;;5074613;28;878;-36
2020/12/04 01:10:14;;;;;;;;;;;;;19.10;95666.00;;;;5074136;28;1506;-35
2020/12/04 01:12:42;;;;;;;;;;;;;19.10;95660.00;;;;5074642;28;1205;-36
2020/12/04 01:15:09;;;;;;;;;;;;;19.10;95667.00;;;;5074326;28;1212;-36
2020/12/04 01:17:35;;;;;;;;;;;;;19.10;95660.00;;;;5074328;28;1427;-35
2020/12/04 01:20:01;;;;;;;;;;;;;19.10;95649.00;;;;5074176;28;783;-35
2020/12/04 01:22:27;;;;;;;;;;;;;19.00;95650.00;;;;5074238;28;1953;-35
2020/12/04 01:24:53;;;;;;;;;;;;;19.00;95652.00;;;;5074732;28;1042;-35
2020/12/04 01:27:19;;;;;;;;;;;;;19.00;95659.00;;;;5074295;28;1476;-35
2020/12/04 01:29:45;;;;;;;;;;;;;19.00;95656.00;;;;5074059;28;1183;-36
2020/12/04 01:32:12;;;;;;;;;;;;;19.00;95645.00;;;;5074018;28;1165;-36
2020/12/04 01:34:38;;;;;;;;;;;;;18.90;95653.00;;;;5074523;28;1012;-35
2020/12/04 01:37:04;;;;;;;;;;;;;18.90;95656.00;;;;5073890;28;1025;-35
2020/12/04 01:39:30;;;;;;;;;;;;;18.90;95642.00;;;;5074031;28;1105;-35
2020/12/04 01:41:56;;;;;;;;;;;;;18.90;95645.00;;;;5073734;28;1906;-35
2020/12/04 01:44:21;;;;;;;;;;;;;18.90;95645.00;;;;5074078;28;1132;-35
2020/12/04 01:46:48;;;;;;;;;;;;;18.80;95631.00;;;;5093248;28;1654;-35
2020/12/04 01:49:16;;;;;;;;;;;;;18.80;95629.00;;;;5093754;28;1095;-36
2020/12/04 01:51:42;;;;;;;;;;;;;18.80;95621.00;;;;5093805;28;1263;-35
2020/12/04 01:54:08;;;;;;;;;;;;;18.80;95614.00;;;;5094220;28;1020;-35
2020/12/04 01:56:38;;;;;;;;;;;;;18.80;95608.00;;;;5094506;28;1024;-35
2020/12/04 01:59:04;;;;;;;;;;;;;18.70;95612.00;;;;5092065;28;1339;-35
2020/12/04 02:01:30;;;;;;;;;;;;;18.80;95611.00;;;;5073434;28;1898;-36
2020/12/04 02:03:56;;;;;;;;;;;;;18.80;95612.00;;;;5073486;28;1110;-35
2020/12/04 02:06:24;;;;;;;;;;;;;18.70;95615.00;;;;5073847;28;1075;-35
2020/12/04 02:08:51;;;;;;;;;;;;;18.70;95611.00;;;;5073887;28;1023;-35
2020/12/04 02:11:18;;;;;;;;;;;;;18.70;95606.00;;;;5073352;28;1260;-36
2020/12/04 02:13:45;;;;;;;;;;;;;18.70;95605.00;;;;5073934;28;1104;-35
2020/12/04 02:16:12;;;;;;;;;;;;;18.70;95617.00;;;;5073204;28;1187;-36
2020/12/04 02:18:38;;;;;;;;;;;;;18.60;95609.00;;;;5072925;28;1168;-35
2020/12/04 02:21:05;;;;;;;;;;;;;18.60;95604.00;;;;5073019;28;1983;-35
2020/12/04 02:23:31;;;;;;;;;;;;;18.60;95597.00;;;;5073381;28;1179;-35
2020/12/04 02:25:57;;;;;;;;;;;;;18.60;95591.00;;;;5072890;28;1196;-35
2020/12/04 02:28:32;;;;;;;;;;;;;18.60;95596.00;;;;5073043;28;1001;-35
2020/12/04 02:30:58;;;;;;;;;;;;;18.60;95580.00;;;;5072410;28;1205;-36
2020/12/04 02:33:24;;;;;;;;;;;;;18.60;95578.00;;;;5072805;28;1109;-35
2020/12/04 02:35:50;;;;;;;;;;;;;18.60;95565.00;;;;5072739;28;1190;-35
2020/12/04 02:38:17;;;;;;;;;;;;;18.60;95567.00;;;;5072856;28;1084;-35
2020/12/04 02:40:43;;;;;;;;;;;;;18.60;95556.00;;;;5072419;28;1909;-35
2020/12/04 02:43:09;;;;;;;;;;;;;18.50;95554.00;;;;5072728;28;1121;-35
2020/12/04 02:45:35;;;;;;;;;;;;;18.50;95550.00;;;;5081795;28;1626;-35
2020/12/04 02:48:01;;;;;;;;;;;;;18.50;95539.00;;;;5092774;28;1118;-35
2020/12/04 02:50:27;;;;;;;;;;;;;18.50;95527.00;;;;5092701;28;1275;-36
2020/12/04 02:52:53;;;;;;;;;;;;;18.50;95523.00;;;;5092875;28;1099;-35
2020/12/04 02:55:20;;;;;;;;;;;;;18.50;95525.00;;;;5092942;28;1017;-35
2020/12/04 02:57:46;;;;;;;;;;;;;18.50;95528.00;;;;5092832;28;1048;-35
2020/12/04 03:00:11;;;;;;;;;;;;;18.50;95541.00;;;;5081582;28;1300;-35
2020/12/04 03:02:37;;;;;;;;;;;;;18.50;95543.00;;;;5072362;28;1902;-36
2020/12/04 03:05:03;;;;;;;;;;;;;18.50;95555.00;;;;5072700;28;1075;-35
2020/12/04 03:07:29;;;;;;;;;;;;;18.50;95542.00;;;;5072289;28;1162;-36
2020/12/04 03:09:55;;;;;;;;;;;;;18.40;95540.00;;;;5071928;28;1174;-35
2020/12/04 03:12:22;;;;;;;;;;;;;18.40;95553.00;;;;5072155;28;1169;-35
2020/12/04 03:14:48;;;;;;;;;;;;;18.40;95544.00;;;;5071992;28;1167;-35
2020/12/04 03:17:14;;;;;;;;;;;;;18.40;95547.00;;;;5071881;28;1382;-35
2020/12/04 03:19:40;;;;;;;;;;;;;18.40;95543.00;;;;5071859;28;1246;-36
2020/12/04 03:22:06;;;;;;;;;;;;;18.40;95538.00;;;;5072179;28;1910;-35
2020/12/04 03:24:33;;;;;;;;;;;;;18.40;95539.00;;;;5071601;28;1064;-36
2020/12/04 03:26:59;;;;;;;;;;;;;18.40;95538.00;;;;5072045;28;1142;-35
2020/12/04 03:29:26;;;;;;;;;;;;;18.40;95533.00;;;;5071476;28;1100;-35
2020/12/04 03:31:51;;;;;;;;;;;;;18.40;95527.00;;;;5071785;28;1304;-35
2020/12/04 03:34:17;;;;;;;;;;;;;18.30;95529.00;;;;5071185;28;1112;-35
2020/12/04 03:36:43;;;;;;;;;;;;;18.40;95529.00;;;;5070711;28;1024;-35
2020/12/04 03:39:09;;;;;;;;;;;;;18.30;95531.00;;;;5072128;28;1040;-35
2020/12/04 03:41:35;;;;;;;;;;;;;18.30;95531.00;;;;5071994;28;1981;-35
2020/12/04 03:44:01;;;;;;;;;;;;;18.30;95528.00;;;;5071832;28;1089;-35
2020/12/04 03:46:28;;;;;;;;;;;;;18.30;95523.00;;;;5088239;28;1738;-35
2020/12/04 03:48:54;;;;;;;;;;;;;18.30;95532.00;;;;5092116;28;1095;-36
2020/12/04 03:51:20;;;;;;;;;;;;;18.30;95525.00;;;;5091685;28;1260;-35
2020/12/04 03:53:47;;;;;;;;;;;;;18.30;95525.00;;;;5092017;28;1001;-35
2020/12/04 03:56:13;;;;;;;;;;;;;18.30;95531.00;;;;5091872;28;1216;-35
2020/12/04 03:58:38;;;;;;;;;;;;;18.30;95540.00;;;;5092294;28;1053;-35
2020/12/04 04:01:04;;;;;;;;;;;;;18.30;95543.00;;;;5072646;28;1971;-36
2020/12/04 04:03:31;;;;;;;;;;;;;18.30;95545.00;;;;5071581;28;1529;-35
2020/12/04 04:05:57;;;;;;;;;;;;;18.30;95550.00;;;;5071825;28;1046;-35
2020/12/04 04:08:23;;;;;;;;;;;;;18.20;95550.00;;;;5071479;28;1012;-35
2020/12/04 04:10:49;;;;;;;;;;;;;18.20;95552.00;;;;5071385;28;1209;-35
2020/12/04 04:13:15;;;;;;;;;;;;;18.20;95548.00;;;;5071238;28;1179;-35
2020/12/04 04:15:41;;;;;;;;;;;;;18.20;95545.00;;;;5071669;28;1088;-35
2020/12/04 04:18:07;;;;;;;;;;;;;18.20;95542.00;;;;5071331;28;1184;-36
2020/12/04 04:20:34;;;;;;;;;;;;;18.20;95541.00;;;;5071109;28;1931;-35
2020/12/04 04:23:00;;;;;;;;;;;;;18.20;95548.00;;;;5071456;28;1056;-35
2020/12/04 04:25:26;;;;;;;;;;;;;18.20;95554.00;;;;5071419;28;1080;-35
2020/12/04 04:27:52;;;;;;;;;;;;;18.20;95553.00;;;;5071361;28;1005;-35
2020/12/04 04:30:18;;;;;;;;;;;;;18.20;95557.00;;;;5071780;28;1108;-35
2020/12/04 04:32:44;;;;;;;;;;;;;18.20;95547.00;;;;5071602;28;1169;-35
2020/12/04 04:35:10;;;;;;;;;;;;;18.20;95549.00;;;;5071288;28;1020;-35
2020/12/04 04:37:36;;;;;;;;;;;;;18.20;95543.00;;;;5074326;28;1064;-35
2020/12/04 04:40:02;;;;;;;;;;;;;18.20;95552.00;;;;5074872;28;1027;-37
2020/12/04 04:42:28;;;;;;;;;;;;;18.20;95553.00;;;;5074768;28;1906;-35
2020/12/04 04:44:55;;;;;;;;;;;;;18.20;95555.00;;;;5078405;28;1639;-36
2020/12/04 04:47:21;;;;;;;;;;;;;18.20;95562.00;;;;5095410;28;1133;-35
2020/12/04 04:49:48;;;;;;;;;;;;;18.20;95545.00;;;;5095171;28;1279;-35
2020/12/04 04:52:14;;;;;;;;;;;;;18.20;95542.00;;;;5094908;28;1173;-35
2020/12/04 04:54:42;;;;;;;;;;;;;18.20;95538.00;;;;5095074;28;1187;-35
2020/12/04 04:57:08;;;;;;;;;;;;;18.20;95544.00;;;;5095659;28;1080;-36
2020/12/04 04:59:34;;;;;;;;;;;;;18.20;95552.00;;;;5089281;28;1410;-35
2020/12/04 05:02:00;;;;;;;;;;;;;18.20;95539.00;;;;5073969;28;1898;-35
2020/12/04 05:04:26;;;;;;;;;;;;;18.20;95534.00;;;;5074786;28;1067;-35
2020/12/04 05:06:52;;;;;;;;;;;;;18.20;95542.00;;;;5074345;28;1082;-35
2020/12/04 05:09:21;;;;;;;;;;;;;18.20;95529.00;;;;5074117;28;1115;-35
2020/12/04 05:11:55;;;;;;;;;;;;;18.20;95524.00;;;;5073631;28;1377;-36
2020/12/04 05:14:23;;;;;;;;;;;;;18.20;95523.00;;;;5074689;28;1007;-36
2020/12/04 05:16:50;;;;;;;;;;;;;18.20;95524.00;;;;5074105;28;1215;-36
2020/12/04 05:19:26;;;;;;;;;;;;;18.20;95532.00;;;;5074169;28;1032;-35
2020/12/04 05:21:52;;;;;;;;;;;;;18.20;95532.00;;;;5073882;28;1985;-35
2020/12/04 05:24:19;;;;;;;;;;;;;18.20;95527.00;;;;5074210;28;1065;-35
2020/12/04 05:26:45;;;;;;;;;;;;;18.20;95528.00;;;;5073921;28;1699;-36
2020/12/04 05:29:12;;;;;;;;;;;;;18.20;95532.00;;;;5073926;28;1168;-35
2020/12/04 05:31:38;;;;;;;;;;;;;18.10;95528.00;;;;5073430;28;1282;-36
2020/12/04 05:34:18;;;;;;;;;;;;;18.10;95531.00;;;;5073595;28;1177;-36
2020/12/04 05:36:44;;;;;;;;;;;;;18.10;95526.00;;;;5073865;28;1129;-35
2020/12/04 05:39:10;;;;;;;;;;;;;18.20;95522.00;;;;5073936;28;1088;-36
2020/12/04 05:41:37;;;;;;;;;;;;;18.20;95517.00;;;;5073816;28;1898;-35
2020/12/04 05:44:03;;;;;;;;;;;;;18.20;95513.00;;;;5073636;28;1748;-35
2020/12/04 05:46:29;;;;;;;;;;;;;18.20;95506.00;;;;5072930;28;1935;-36
2020/12/04 05:48:56;;;;;;;;;;;;;18.30;95498.00;;;;5073476;28;1152;-36
2020/12/04 05:51:23;;;;;;;;;;;;;18.30;95509.00;;;;5073999;28;1324;-35
2020/12/04 05:53:49;;;;;;;;;;;;;18.30;95518.00;;;;5073664;28;1099;-35
2020/12/04 05:56:15;;;;;;;;;;;;;18.30;95526.00;;;;5073724;28;1272;-35
2020/12/04 05:58:41;;;;;;;;;;;;;18.30;95532.00;;;;5073521;28;1087;-35
2020/12/04 06:01:07;;;;;;;;;;;;;18.30;95530.00;;;;5073048;28;1898;-35
2020/12/04 06:03:34;;;;;;;;;;;;;18.40;95525.00;;;;5073499;28;1176;-35
2020/12/04 06:06:00;;;;;;;;;;;;;18.40;95517.00;;;;5073786;28;1132;-36
2020/12/04 06:08:26;;;;;;;;;;;;;18.40;95515.00;;;;5073544;28;1087;-35
2020/12/04 06:10:53;;;;;;;;;;;;;18.40;95520.00;;;;5073268;28;1232;-36
2020/12/04 06:13:18;;;;;;;;;;;;;18.40;95509.00;;;;5073600;28;1116;-35
2020/12/04 06:15:44;;;;;;;;;;;;;18.40;95509.00;;;;5073481;28;1004;-36
2020/12/04 06:18:11;;;;;;;;;;;;;18.40;95507.00;;;;5073350;28;1168;-35
2020/12/04 06:20:41;;;;;;;;;;;;;18.40;95506.00;;;;5073085;28;1267;-35
2020/12/04 06:23:09;;;;;;;;;;;;;18.40;95523.00;;;;5073454;28;1922;-35
2020/12/04 06:25:50;;;;;;;;;;;;;18.40;95527.00;;;;5073343;28;1067;-35
2020/12/04 06:28:16;;;;;;;;;;;;;18.40;95528.00;;;;5071410;28;1766;-36
2020/12/04 06:30:43;;;;;;;;;;;;;18.40;95536.00;;;;5073007;28;1223;-35
2020/12/04 06:33:09;;;;;;;;;;;;;18.40;95538.00;;;;5072777;28;1115;-36
2020/12/04 06:35:39;;;;;;;;;;;;;18.40;95545.00;;;;5073208;28;1020;-36
2020/12/04 06:38:06;;;;;;;;;;;;;18.50;95558.00;;;;5072238;28;1313;-36
2020/12/04 06:40:32;;;;;;;;;;;;;18.50;95558.00;;;;5072814;28;1332;-35
2020/12/04 06:42:58;;;;;;;;;;;;;18.60;95553.00;;;;5072647;28;1882;-36
2020/12/04 06:45:25;;;;;;;;;;;;;18.60;95549.00;;;;5072245;28;1421;-35
2020/12/04 06:48:10;;;;;;;;;;;;;18.70;95554.00;;;;5072397;28;1392;-35
2020/12/04 06:50:39;;;;;;;;;;;;;18.90;95564.00;;;;5067928;28;2442;-41
2020/12/04 06:53:05;;;;;;;;;;;;;19.00;95551.00;;;;5071949;28;1915;-35
2020/12/04 06:55:32;;;;;;;;;;;;;19.10;95551.00;;;;5072529;28;2239;-39
2020/12/04 06:57:58;;;;;;;;;;;;;19.20;95562.00;;;;5069380;28;2298;-37
2020/12/04 07:00:24;;;;;;;;;;;;;19.30;95568.00;;;;5064530;28;1431;-37
2020/12/04 07:02:50;;;;;;;;;;;;;19.30;95572.00;;;;5071058;28;1906;-38
2020/12/04 07:05:16;;;;;;;;;;;;;19.40;95573.00;;;;5072987;28;1189;-37
2020/12/04 07:07:42;;;;;;;;;;;;;19.50;95569.00;;;;5071981;28;2164;-38
2020/12/04 07:10:08;;;;;;;;;;;;;19.60;95584.00;;;;5072222;28;1165;-42
2020/12/04 07:12:35;;;;;;;;;;;;;19.70;95567.00;;;;5071891;28;1202;-48
2020/12/04 07:15:01;;;;;;;;;;;;;19.80;95566.00;;;;5070735;28;1774;-45
2020/12/04 07:17:27;;;;;;;;;;;;;19.80;95570.00;;;;5065774;28;2289;-43
2020/12/04 07:19:53;;;;;;;;;;;;;19.90;95566.00;;;;5057880;28;2058;-35
2020/12/04 07:22:20;;;;;;;;;;;;;19.90;95577.00;;;;5071700;28;1894;-38
2020/12/04 07:24:46;;;;;;;;;;;;;19.90;95586.00;;;;5070052;28;2199;-38
2020/12/04 07:27:12;;;;;;;;;;;;;19.80;95573.00;;;;5072290;28;1017;-36
2020/12/04 07:29:39;;;;;;;;;;;;;18.50;95576.00;;;;5071939;28;1171;-40
2020/12/04 07:32:05;;;;;;;;;;;;;17.90;95564.00;;;;5070550;28;2058;-39
2020/12/04 07:34:35;;;;;;;;;;;;;18.30;95574.00;;;;5056989;28;1823;-39
2020/12/04 07:37:01;;;;;;;;;;;;;19.30;95585.00;;;;5069151;28;1830;-41
2020/12/04 07:39:28;;;;;;;;;;;;;19.70;95587.00;;;;5072082;28;2192;-40
2020/12/04 07:41:54;;;;;;;;;;;;;19.90;95579.00;;;;5071460;28;1983;-38
2020/12/04 07:44:26;;;;;;;;;;;;;20.10;95581.00;;;;5052276;28;2125;-38
2020/12/04 07:46:58;;;;;;;;;;;;;20.20;95588.00;;;;5051731;28;1249;-42
2020/12/04 07:49:24;;;;;;;;;;;;;20.30;95591.00;;;;5054624;28;2066;-43
2020/12/04 07:51:50;;;;;;;;;;;;;20.40;95592.00;;;;5060522;28;2184;-41
2020/12/04 07:54:19;;;;;;;;;;;;;20.40;95602.00;;;;5051797;28;1108;-41
2020/12/04 07:56:47;;;;;;;;;;;;;20.40;95603.00;;;;5051656;28;1005;-43
2020/12/04 07:59:13;;;;;;;;;;;;;20.50;95603.00;;;;5067218;28;2149;-45
2020/12/04 08:01:40;;;;;;;;;;;;;20.60;95601.00;;;;5071304;28;1981;-43
2020/12/04 08:04:06;;;;;;;;;;;;;20.60;95588.00;;;;5071602;28;1004;-49
2020/12/04 08:06:32;;;;;;;;;;;;;20.70;95591.00;;;;5071534;28;1779;-47
2020/12/04 08:09:08;;;;;;;;;;;;;20.70;95589.00;;;;5071239;28;2113;-38
2020/12/04 08:11:35;;;;;;;;;;;;;20.80;95600.00;;;;5075090;28;1212;-39
2020/12/04 08:14:01;;;;;;;;;;;;;20.80;95588.00;;;;5075506;28;1013;-40
2020/12/04 08:16:27;;;;;;;;;;;;;20.90;95592.00;;;;5075730;28;1093;-38
2020/12/04 08:18:53;;;;;;;;;;;;;21.00;95594.00;;;;5075520;28;1019;-38
2020/12/04 08:21:20;;;;;;;;;;;;;21.00;95587.00;;;;5075348;28;1898;-39
2020/12/04 08:23:53;;;;;;;;;;;;;21.10;95592.00;;;;5074874;28;1698;-51
2020/12/04 08:26:19;;;;;;;;;;;;;21.10;95595.00;;;;5073499;28;1611;-39
2020/12/04 08:28:51;;;;;;;;;;;;;21.20;95598.00;;;;5094417;28;1047;-37
2020/12/04 08:31:21;;;;;;;;;;;;;21.30;95605.00;;;;5095909;28;1339;-38
2020/12/04 08:33:47;;;;;;;;;;;;;21.30;95614.00;;;;5087804;28;1257;-38
2020/12/04 08:36:12;;;;;;;;;;;;;21.40;95612.00;;;;5080376;28;1141;-37
2020/12/04 08:38:46;;;;;;;;;;;;;21.40;95608.00;;;;5075009;28;1110;-37
2020/12/04 08:41:12;;;;;;;;;;;;;21.50;95620.00;;;;5074551;28;1882;-41
2020/12/04 08:43:40;;;;;;;;;;;;;21.50;95627.00;;;;5074546;28;1795;-41
2020/12/04 08:46:08;;;;;;;;;;;;;21.60;95632.00;;;;5075006;28;1071;-36
2020/12/04 08:48:36;;;;;;;;;;;;;21.60;95624.00;;;;5074803;28;1091;-38
2020/12/04 08:51:02;;;;;;;;;;;;;21.60;95636.00;;;;5074673;28;1232;-42
2020/12/04 08:53:28;;;;;;;;;;;;;21.60;95636.00;;;;5074853;28;1100;-45
2020/12/04 08:55:55;;;;;;;;;;;;;21.70;95631.00;;;;5074685;28;1112;-42
2020/12/04 08:58:22;;;;;;;;;;;;;21.80;95626.00;;;;5074745;28;1626;-47
2020/12/04 09:00:48;;;;;;;;;;;;;21.80;95617.00;;;;5074629;28;1282;-46
2020/12/04 09:03:14;;;;;;;;;;;;;21.80;95625.00;;;;5074617;28;2028;-50
2020/12/04 09:05:40;;;;;;;;;;;;;21.90;95623.00;;;;5074816;28;1085;-40
2020/12/04 09:08:06;;;;;;;;;;;;;21.90;95612.00;;;;5074173;28;1121;-40
2020/12/04 09:10:32;;;;;;;;;;;;;21.90;95618.00;;;;5074203;28;1275;-37
2020/12/04 09:12:59;;;;;;;;;;;;;22.00;95612.00;;;;5073187;28;1048;-39
2020/12/04 09:15:26;;;;;;;;;;;;;22.00;95622.00;;;;5074373;28;1116;-44
2020/12/04 09:17:52;;;;;;;;;;;;;22.00;95616.00;;;;5074173;28;1127;-45
2020/12/04 09:20:18;;;;;;;;;;;;;22.00;95616.00;;;;5074114;28;1284;-39
2020/12/04 09:22:44;;;;;;;;;;;;;22.00;95622.00;;;;5073261;28;1996;-38
2020/12/04 09:25:10;;;;;;;;;;;;;22.00;95612.00;;;;5073668;28;1762;-37
2020/12/04 09:27:36;;;;;;;;;;;;;22.00;95622.00;;;;5074518;28;1123;-37
2020/12/04 09:30:03;;;;;;;;;;;;;22.00;95625.00;;;;5074092;28;1084;-37
2020/12/04 09:32:29;;;;;;;;;;;;;22.00;95633.00;;;;5073965;28;1461;-36
2020/12/04 09:34:55;;;;;;;;;;;;;22.00;95633.00;;;;5073863;28;1569;-38
2020/12/04 09:37:21;;;;;;;;;;;;;22.00;95632.00;;;;5074341;28;1079;-38
2020/12/04 09:39:48;;;;;;;;;;;;;22.00;95638.00;;;;5073798;28;1080;-37
2020/12/04 09:42:14;;;;;;;;;;;;;22.00;95626.00;;;;5074160;28;2121;-40
2020/12/04 09:44:40;;;;;;;;;;;;;22.00;95625.00;;;;5074085;28;1375;-40
2020/12/04 09:47:07;;;;;;;;;;;;;22.00;95622.00;;;;5074349;28;1021;-39
2020/12/04 09:49:33;;;;;;;;;;;;;22.10;95621.00;;;;5074059;28;1028;-38
2020/12/04 09:51:59;;;;;;;;;;;;;22.10;95613.00;;;;5073561;28;2095;-41
2020/12/04 09:54:26;;;;;;;;;;;;;22.20;95620.00;;;;5073735;28;1183;-40
2020/12/04 09:56:53;;;;;;;;;;;;;22.30;95622.00;;;;5073643;28;1366;-42
2020/12/04 09:59:19;;;;;;;;;;;;;22.30;95613.00;;;;5073672;28;1737;-43
2020/12/04 10:01:47;;;;;;;;;;;;;22.30;95611.00;;;;5071346;28;1985;-43
2020/12/04 10:04:14;;;;;;;;;;;;;22.30;95606.00;;;;5073096;28;1097;-40
2020/12/04 10:06:40;;;;;;;;;;;;;22.40;95609.00;;;;5073332;28;1099;-38
2020/12/04 10:09:06;;;;;;;;;;;;;22.40;95611.00;;;;5073400;28;1062;-38
2020/12/04 10:11:32;;;;;;;;;;;;;22.40;95611.00;;;;5073303;28;1408;-38
2020/12/04 10:13:58;;;;;;;;;;;;;22.40;95621.00;;;;5073734;28;1116;-39
2020/12/04 10:16:24;;;;;;;;;;;;;22.50;95619.00;;;;5073488;28;1128;-39
2020/12/04 10:18:50;;;;;;;;;;;;;22.50;95620.00;;;;5073221;28;1000;-40
2020/12/04 10:21:18;;;;;;;;;;;;;22.50;95622.00;;;;5072890;28;1307;-38
2020/12/04 10:23:44;;;;;;;;;;;;;22.50;95616.00;;;;5073037;28;1762;-40
2020/12/04 10:26:10;;;;;;;;;;;;;22.60;95627.00;;;;5091809;28;1436;-49
2020/12/04 10:28:36;;;;;;;;;;;;;22.60;95627.00;;;;5093478;28;1037;-47
2020/12/04 10:31:02;;;;;;;;;;;;;22.60;95616.00;;;;5093565;28;2021;-42
2020/12/04 10:33:28;;;;;;;;;;;;;22.50;95624.00;;;;5084767;28;1420;-38
2020/12/04 10:35:54;;;;;;;;;;;;;21.80;95626.00;;;;5072236;28;1550;-38
2020/12/04 10:38:21;;;;;;;;;;;;;21.40;95632.00;;;;5073334;28;2213;-38
2020/12/04 10:40:47;;;;;;;;;;;;;21.20;95628.00;;;;5072518;28;1314;-37
2020/12/04 10:43:13;;;;;;;;;;;;;21.70;95633.00;;;;5072403;28;2198;-37
2020/12/04 10:45:39;;;;;;;;;;;;;22.00;95626.00;;;;5072404;28;1347;-38
2020/12/04 10:48:05;;;;;;;;;;;;;22.20;95624.00;;;;5072884;28;1123;-37
2020/12/04 10:50:31;;;;;;;;;;;;;22.30;95637.00;;;;5072284;28;1209;-37
2020/12/04 10:52:57;;;;;;;;;;;;;22.30;95633.00;;;;5072293;28;1083;-39
2020/12/04 10:55:23;;;;;;;;;;;;;22.40;95632.00;;;;5072735;28;1122;-40
2020/12/04 10:57:49;;;;;;;;;;;;;22.40;95625.00;;;;5075087;28;1455;-41
2020/12/04 11:00:15;;;;;;;;;;;;;22.40;95624.00;;;;5071805;28;1240;-38
2020/12/04 11:02:42;;;;;;;;;;;;;22.40;95619.00;;;;5071873;28;1905;-41
2020/12/04 11:05:32;;;;;;;;;;;;;22.50;95613.00;;;;5071694;28;1339;-44
2020/12/04 11:07:59;;;;;;;;;;;;;22.50;95613.00;;;;5070514;28;1237;-38
2020/12/04 11:10:26;;;;;;;;;;;;;22.60;95609.00;;;;5072388;28;1110;-40
2020/12/04 11:12:52;;;;;;;;;;;;;22.60;95605.00;;;;5072382;28;1120;-39
2020/12/04 11:15:17;;;;;;;;;;;;;22.60;95607.00;;;;5072620;28;1071;-40
2020/12/04 11:17:43;;;;;;;;;;;;;22.60;95613.00;;;;5071864;28;1060;-39
2020/12/04 11:20:09;;;;;;;;;;;;;22.70;95611.00;;;;5072756;28;1086;-38
2020/12/04 11:22:35;;;;;;;;;;;;;22.70;95612.00;;;;5071839;28;1910;-41
2020/12/04 11:25:01;;;;;;;;;;;;;22.70;95609.00;;;;5076878;28;1682;-44
2020/12/04 11:27:28;;;;;;;;;;;;;22.80;95610.00;;;;5072003;28;1064;-46
2020/12/04 11:29:54;;;;;;;;;;;;;22.80;95618.00;;;;5071978;28;970;-42
2020/12/04 11:32:20;;;;;;;;;;;;;22.80;95629.00;;;;5071434;28;1137;-42
2020/12/04 11:34:46;;;;;;;;;;;;;22.80;95612.00;;;;5072003;28;1541;-42
2020/12/04 11:37:12;;;;;;;;;;;;;22.90;95616.00;;;;5071846;28;1028;-36
2020/12/04 11:39:40;;;;;;;;;;;;;22.90;95618.00;;;;5071943;28;1104;-44
2020/12/04 11:42:06;;;;;;;;;;;;;23.00;95619.00;;;;5071693;28;2057;-43
2020/12/04 11:44:33;;;;;;;;;;;;;23.00;95615.00;;;;5071408;28;973;-43
2020/12/04 11:46:59;;;;;;;;;;;;;23.10;95612.00;;;;5070563;28;1118;-47
2020/12/04 11:49:25;;;;;;;;;;;;;23.00;95609.00;;;;5071051;28;1288;-44
2020/12/04 11:51:51;;;;;;;;;;;;;23.10;95617.00;;;;5068491;28;1264;-41
2020/12/04 11:54:17;;;;;;;;;;;;;23.00;95611.00;;;;5070777;28;1284;-42
2020/12/04 11:56:46;;;;;;;;;;;;;23.00;95617.00;;;;5071419;28;1292;-43
2020/12/04 11:59:12;;;;;;;;;;;;;23.10;95612.00;;;;5084114;28;1725;-43
2020/12/04 12:01:39;;;;;;;;;;;;;23.10;95621.00;;;;5071415;28;1993;-45
2020/12/04 12:04:05;;;;;;;;;;;;;23.10;95626.00;;;;5071529;28;1156;-48
2020/12/04 12:06:31;;;;;;;;;;;;;23.10;95630.00;;;;5071690;28;1084;-42
2020/12/04 12:08:57;;;;;;;;;;;;;23.10;95634.00;;;;5070798;28;1135;-58
2020/12/04 12:11:23;;;;;;;;;;;;;23.20;95633.00;;;;5070633;28;1321;-56
2020/12/04 12:13:49;;;;;;;;;;;;;23.20;95615.00;;;;5071222;28;1005;-49
2020/12/04 12:16:16;;;;;;;;;;;;;23.20;95624.00;;;;5067512;28;1950;-50
2020/12/04 12:18:43;;;;;;;;;;;;;23.20;95621.00;;;;5059450;28;2136;-45
2020/12/04 12:21:10;;;;;;;;;;;;;23.20;95628.00;;;;5066251;28;1918;-45
2020/12/04 12:23:36;;;;;;;;;;;;;23.20;95625.00;;;;5069274;28;2299;-45
2020/12/04 12:26:02;;;;;;;;;;;;;23.20;95622.00;;;;5058891;28;2232;-40
2020/12/04 12:28:28;;;;;;;;;;;;;23.10;95616.00;;;;5051137;28;1279;-40
2020/12/04 12:30:54;;;;;;;;;;;;;23.00;95618.00;;;;5069418;28;2227;-40
2020/12/04 12:33:20;;;;;;;;;;;;;23.00;95609.00;;;;5069491;28;2136;-40
2020/12/04 12:35:47;;;;;;;;;;;;;23.00;95612.00;;;;5068898;28;1558;-40
2020/12/04 12:38:12;;;;;;;;;;;;;23.00;95604.00;;;;5071187;28;2294;-40
2020/12/04 12:40:38;;;;;;;;;;;;;23.00;95611.00;;;;5071726;28;1288;-40
2020/12/04 12:43:04;;;;;;;;;;;;;23.00;95613.00;;;;5059176;28;2101;-40
2020/12/04 12:45:30;;;;;;;;;;;;;23.00;95614.00;;;;5051453;28;1176;-40
2020/12/04 12:47:56;;;;;;;;;;;;;22.90;95616.00;;;;5051058;28;1189;-40
2020/12/04 12:50:22;;;;;;;;;;;;;22.90;95608.00;;;;5052911;28;2319;-40
2020/12/04 12:52:49;;;;;;;;;;;;;22.90;95605.00;;;;5071560;28;1350;-40
2020/12/04 12:55:15;;;;;;;;;;;;;22.90;95601.00;;;;5063211;28;2236;-40
2020/12/04 12:57:41;;;;;;;;;;;;;22.90;95611.00;;;;5062288;28;1305;-39
2020/12/04 13:00:07;;;;;;;;;;;;;22.40;95614.00;;;;5073773;28;1467;-41
2020/12/04 13:02:33;;;;;;;;;;;;;22.30;95608.00;;;;5074309;28;1902;-46
2020/12/04 13:04:59;;;;;;;;;;;;;22.80;95601.00;;;;5074653;28;1208;-41
2020/12/04 13:07:25;;;;;;;;;;;;;23.00;95608.00;;;;5072956;28;1284;-45
2020/12/04 13:09:52;;;;;;;;;;;;;23.10;95610.00;;;;5074210;28;1175;-44
2020/12/04 13:12:18;;;;;;;;;;;;;23.10;95605.00;;;;5072036;28;1454;-45
2020/12/04 13:14:44;;;;;;;;;;;;;23.10;95602.00;;;;5073485;28;1133;-44
2020/12/04 13:17:10;;;;;;;;;;;;;23.10;95597.00;;;;5072787;28;1148;-47
2020/12/04 13:19:36;;;;;;;;;;;;;23.10;95597.00;;;;5073623;28;1318;-51
2020/12/04 13:22:02;;;;;;;;;;;;;23.20;95609.00;;;;5072391;28;1979;-51
2020/12/04 13:24:28;;;;;;;;;;;;;23.30;95619.00;;;;5073056;28;1796;-43
2020/12/04 13:26:55;;;;;;;;;;;;;23.30;95630.00;;;;5074002;28;1196;-43
2020/12/04 13:29:22;;;;;;;;;;;;;23.30;95632.00;;;;5074165;28;1871;-50
2020/12/04 13:31:49;;;;;;;;;;;;;23.30;95623.00;;;;5073848;28;1433;-45
2020/12/04 13:34:15;;;;;;;;;;;;;23.30;95622.00;;;;5074332;28;1079;-51
2020/12/04 13:36:41;;;;;;;;;;;;;23.40;95616.00;;;;5072444;28;2173;-48
2020/12/04 13:39:07;;;;;;;;;;;;;23.40;95621.00;;;;5073732;28;1179;-41
2020/12/04 13:41:33;;;;;;;;;;;;;23.40;95625.00;;;;5073257;28;1282;-44
2020/12/04 13:44:00;;;;;;;;;;;;;23.40;95636.00;;;;5073883;28;2165;-52
2020/12/04 13:46:26;;;;;;;;;;;;;23.40;95637.00;;;;5073851;28;1332;-51
2020/12/04 13:48:52;;;;;;;;;;;;;23.50;95647.00;;;;5074191;28;1123;-51